gp del trentino

MXGP 2016. GP del Trentino. Gajser e Ferrandis si aggiudicano le qualifiche a Pietramurata

- Lo sloveno si aggiudica la qualifica MXGP davanti a Nagl e Cairoli; Ferrandis beffa Herlings e fa sua la MX2
MXGP 2016. GP del Trentino. Gajser e Ferrandis si aggiudicano le qualifiche a Pietramurata

Prima il sole, poi la pioggia che nella manche di qualifica ha reso più difficile la vita dei piloti ma non quella di Tim Gajser cha ha dato una sonora lezione di guida pulita e redditizia grazie alla quale si è aggiudicato il primo scontro della classe regina. Il neo leader è rimasto in testa per tutti i 13 giri, seguito costantemente, ma a distanza di sicurezza, da Max Nagl e da Tony Cairoli il quale nelle prime battute di gara aveva soffiato la terza piazza a Evgeny BobryshevIl russo ha poi mantenuto il 4° posto sino al traguardo, dove ha preceduto Kevin Strijbos, Romain Febvre rinvenuto da metà gruppo, Jeremy Van Horebeek e il rientrante Gautier Paulin; 17° Marco Maddii terminato davanti a David Philippaerts.

 

 

MX2

Dopo un iniziale tira e molla tra Jeffrey Herlings e Dylan Ferrandis, il francese della Kawasaki ha preso il sopravvento e si è mantenuto sempre al comando della qualifica MX2 chiudendo la manche davanti a Jeremy Seewer e ad Herlings accontentatosi della terza posizione visto il tracciato diventato praticamente mono traiettoria; bravi Samuele Bernardini 6°, Michele Cervellin 8° e Simone Furlotti 10°.

Bene anche Gianluca Facchetti, 3° nella prima manche dell’Europeo 125.

 

MXGP - Qualifying Race - Classification
Pos Nr Rider Nat. Fed. Bike Time laps Diff. First Diff. Prev. Bestlaptime in lap Speed
1 243 Gajser, Tim SLO AMZS Honda 25:00.430 13 0:00.000 0:00.000 1:52.311 1 53.2
2 12 Nagl, Maximilian GER DMSB Husqvarna 25:08.505 13 0:08.075 0:08.075 1:53.309 4 52.7
3 222 Cairoli, Antonio ITA FMI KTM 25:14.150 13 0:13.720 0:05.645 1:54.205 12 52.3
4 777 Bobryshev, Evgeny RUS MUL Honda 25:16.797 13 0:16.367 0:02.647 1:54.229 12 52.3
5 22 Strijbos, Kevin BEL FMB Suzuki 25:17.497 13 0:17.067 0:00.700 1:54.478 13 52.2
6 461 Febvre, Romain FRA FFM Yamaha 25:18.704 13 0:18.274 0:01.207 1:52.937 12 52.9
7 89 Van Horebeek, Jeremy BEL FMB Yamaha 25:20.182 13 0:19.752 0:01.478 1:53.836 8 52.4
8 21 Paulin, Gautier FRA MCM Honda 25:48.919 13 0:48.489 0:28.737 1:55.589 4 51.7
9 92 Guillod, Valentin SUI FMS Yamaha 25:53.124 13 0:52.694 0:04.205 1:55.880 3 51.5
10 259 Coldenhoff, Glenn NED KNMV KTM 25:55.434 13 0:55.004 0:02.310 1:56.684 12 51.2
11 24 Simpson, Shaun GBR ACU KTM 26:00.099 13 0:59.669 0:04.665 1:54.900 9 52
12 100 Searle, Tommy GBR ACU Kawasaki 26:01.456 13 1:01.026 0:01.357 1:55.315 3 51.8
13 911 Tixier, Jordi FRA FFM Kawasaki 26:03.687 13 1:03.257 0:02.231 1:56.951 9 51
14 32 Potisek, Milko FRA FFM Yamaha 26:10.705 13 1:10.275 0:07.018 1:57.242 7 50.9
15 156 Heidecke, Angus GER DMSB KTM 26:15.524 13 1:15.094 0:04.819 1:57.379 10 50.9

 

 

MX2 - Qualifying Race - Classification
Pos Nr Rider Nat. Fed. Bike Time laps Diff. First Diff. Prev. Bestlaptime in lap Speed
1 4 Ferrandis, Dylan FRA FFM Kawasaki 25:08.730 13 0:00.000 0:00.000 1:52.210 4 53.2
2 91 Seewer, Jeremy SUI FMS Suzuki 25:16.985 13 0:08.255 0:08.255 1:53.218 4 52.7
3 84 Herlings, Jeffrey NED KNMV KTM 25:18.753 13 0:10.023 0:01.768 1:53.621 7 52.5
4 41 Jonass, Pauls LAT LAMSF KTM 25:20.271 13 0:11.541 0:01.518 1:53.732 8 52.5
5 59 Tonkov, Aleksandr RUS KNMV Yamaha 25:45.534 13 0:36.804 0:25.263 1:55.447 5 51.7
6 321 Bernardini, Samuele ITA FMI TM 25:54.206 13 0:45.476 0:08.672 1:54.496 3 52.1
7 99 Anstie, Max GBR ACU Husqvarna 25:57.297 13 0:48.567 0:03.091 1:53.577 2 52.6
8 747 Cervellin, Michele ITA FMI Honda 26:03.498 13 0:54.768 0:06.201 1:55.056 3 51.9
9 161 Östlund, Alvin SWE SVEMO Yamaha 26:06.635 13 0:57.905 0:03.137 1:56.662 4 51.2
10 951 Furlotti, Simone ITA FMI Yamaha 26:14.943 13 1:06.213 0:08.308 1:57.321 4 50.9
11 95 Justs, Roberts LAT LAMSF KTM 26:16.683 13 1:07.953 0:01.740 1:57.196 4 50.9
12 18 Brylyakov, Vsevolod RUS MFR Kawasaki 26:17.469 13 1:08.739 0:00.786 1:57.932 5 50.6
13 811 Sterry, Adam GBR ACU KTM 26:22.256 13 1:13.526 0:04.787 1:57.334 4 50.9
14 152 Petrov, Petar BUL QMMF Kawasaki 26:28.940 13 1:20.210 0:06.684 1:55.092 6 51.9
15 101 Zaragoza, Jorge ESP RFME Honda 26:33.282 13 1:24.552 0:04.342 1:58.137 4 50.5
  • walter.sciutto, Nizza Monferrato (AT)

    I migliori sono tutti li nelle prime posizioni. Tony, partito quarto, ha voluto amministrare (saggiamente) le forze per la gara. Febvre, partito male, è stato molto consistente e veloce e anche se si dice che ad Arco non si supera lui ha trovato le traiettorie x passare. Anche Paulin è rinvenuto bene dalle retrovie, non pensavo riuscisse. In quanto a Gajser, se parte in testa, la gara è già finita. Comunque gara tutta da seguire, pista dove è facilissimo fare errori.
    La curiosità è grande anche nella mx2: ieri scintille subito tra Ferrandis e Herlings e la sensazione è che gli "umani" ne abbiano le scatole piene di questo arrogante olandese. Oggi saranno fugati tutti i dubbi. Forza Tony!
Inserisci il tuo commento